Joshua Calab — WDE8488 — position and weather

sailwx.info

Track history (hours):
 
Tides and Currents Weather Stations Pressure Air Temp Water Temp Dewpoint Dewpoint Depression Visibility Wind Speed Wind Dir Waves Ship Positions

Joshua Calab

Owner: CLM MARINE, LLC, HUMBLE, TX. More information available from US FCC via Universal Licensing System and Coast Guard Vessel Documentation Center.

Last reported at 2017-Nov-17 09:10 UTC. Time now 2017-Nov-19 03:04 UTC.
Position N 29°43' W 095°01'.

Length 25 m; draft 3 m.

Type: Other ship. MMSI: 367406080.

Date/timePositionNaut miles runAvg speedWind from/ knotsBaromVisibWave heightAir tempDewpointWater temp
2017-Nov-17 09:10N 29°43' W 095°01'1 5.4
2017-Nov-17 09:00N 29°42' W 095°01'3 5.6
2017-Nov-17 08:29N 29°40' W 094°59'3 6.0
2017-Nov-17 07:59N 29°37' W 094°57'3 5.8
2017-Nov-17 07:30N 29°35' W 094°56'  
2017-Nov-11 17:45N 29°52' W 092°22'1 4.5
2017-Nov-11 17:27N 29°51' W 092°22'2 5.1
2017-Nov-11 16:59N 29°50' W 092°19'2 4.7
2017-Nov-11 16:29N 29°49' W 092°17'4 3.8
2017-Nov-11 15:19N 29°47' W 092°12'1 0.4
2017-Nov-11 13:43N 29°47' W 092°12'0 1.0
2017-Nov-11 13:29N 29°47' W 092°11'0 0.9
2017-Nov-11 12:59N 29°47' W 092°11'1 1.2
2017-Nov-11 12:07N 29°47' W 092°10'69 4.0
2017-Nov-10 18:44N 29°32' W 090°52'1 6.2
2017-Nov-10 18:30N 29°32' W 090°50'3 6.1
2017-Nov-10 18:01N 29°32' W 090°47'2 5.0
2017-Nov-10 17:30N 29°34' W 090°44'2 4.3
2017-Nov-10 17:00N 29°35' W 090°43'2 3.3
2017-Nov-10 16:30N 29°37' W 090°41'0 0.3
2017-Nov-10 16:00N 29°36' W 090°41'2 4.1
2017-Nov-10 15:30N 29°36' W 090°39'3 5.1
2017-Nov-10 15:01N 29°35' W 090°36'2 3.6
2017-Nov-10 14:29N 29°34' W 090°34'0 0.0
2017-Nov-10 14:00N 29°34' W 090°34'0 0.9
2017-Nov-10 13:30N 29°34' W 090°34'1 2.2
2017-Nov-10 13:00N 29°34' W 090°33'2 3.5
2017-Nov-10 12:30N 29°34' W 090°30'  
Track history (hours):
 
Tides and Currents Weather Stations Pressure Air Temp Water Temp Dewpoint Dewpoint Depression Visibility Wind Speed Wind Dir Waves Ship Positions

Joshua Calab

Owner: CLM MARINE, LLC, HUMBLE, TX. More information available from US FCC via Universal Licensing System and Coast Guard Vessel Documentation Center.

Last reported at 2017-Nov-17 09:10 UTC. Time now 2017-Nov-19 03:04 UTC.
Position N 29°43' W 095°01'.

Length 25 m; draft 3 m.

Type: Other ship. MMSI: 367406080.

Date/timePositionNaut miles runAvg speedWind from/ knotsBaromVisibWave heightAir tempDewpointWater temp
2017-Nov-17 09:10N 29°43' W 095°01'1 5.4
2017-Nov-17 09:00N 29°42' W 095°01'3 5.6
2017-Nov-17 08:29N 29°40' W 094°59'3 6.0
2017-Nov-17 07:59N 29°37' W 094°57'3 5.8
2017-Nov-17 07:30N 29°35' W 094°56'  
2017-Nov-11 17:45N 29°52' W 092°22'1 4.5
2017-Nov-11 17:27N 29°51' W 092°22'2 5.1
2017-Nov-11 16:59N 29°50' W 092°19'2 4.7
2017-Nov-11 16:29N 29°49' W 092°17'4 3.8
2017-Nov-11 15:19N 29°47' W 092°12'1 0.4
2017-Nov-11 13:43N 29°47' W 092°12'0 1.0
2017-Nov-11 13:29N 29°47' W 092°11'0 0.9
2017-Nov-11 12:59N 29°47' W 092°11'1 1.2
2017-Nov-11 12:07N 29°47' W 092°10'69 4.0
2017-Nov-10 18:44N 29°32' W 090°52'1 6.2
2017-Nov-10 18:30N 29°32' W 090°50'3 6.1
2017-Nov-10 18:01N 29°32' W 090°47'2 5.0
2017-Nov-10 17:30N 29°34' W 090°44'2 4.3
2017-Nov-10 17:00N 29°35' W 090°43'2 3.3
2017-Nov-10 16:30N 29°37' W 090°41'0 0.3
2017-Nov-10 16:00N 29°36' W 090°41'2 4.1
2017-Nov-10 15:30N 29°36' W 090°39'3 5.1
2017-Nov-10 15:01N 29°35' W 090°36'2 3.6
2017-Nov-10 14:29N 29°34' W 090°34'0 0.0
2017-Nov-10 14:00N 29°34' W 090°34'0 0.9
2017-Nov-10 13:30N 29°34' W 090°34'1 2.2
2017-Nov-10 13:00N 29°34' W 090°33'2 3.5
2017-Nov-10 12:30N 29°34' W 090°30'  

Dump ship's entire track history